Accueil
METAR-TAF:

METAR-TAF

Aéroports :

Matagami, Québec, Canada

latitude: 49-46N, longitude: 077-49W, altitude: 281 m

Observation

Le bulletin a été fait il y a 2 minutes, à 04:13 UTC
Vent 11 kt de ouest/nord-ouest
Température -6°C
Humidité 93%
Pression 1011 hPa
Visibilité: 14.5 km
Nuages épars à une hauteur de 1000 ft
Nuages fragmentés à une hauteur de 1400 ft
Ciel couvert à une hauteur de 2500 ft
neige faible

METAR: CYNM 240413Z AUTO 30011KT 9SM -SN SCT010 BKN014 OVC025 M06/M07 A2985 RMK SLP128

Heure: 23:15 (04:15 UTC)


TAF: absent

Observations et prévisions météorologiques de plus de 4000 aéroports (messages METAR et TAF).

Les stations disponibles sont représentées par des disques jaunes et rouges sur la carte.

Passer la souris dessus pour voir le nom de la station.

Cliquer dessus pour voir les observations et prévisions météorologiques.

Pour changer de carte: cliquez sur les boutons verts avec une croix noire pour zoomer, sur le bouton vert avec un tiret pour effectuer un zoom arrière, ou sur les flèches vertes pour les cartes adjacentes.


METAR-TAF: